Route Details

Aircraft Information
Group: North America Fleet
Types: B738, B752, B762, B763
Route Data
Distance: 518nm
Duration: 2h 00m
Origin METAR: KMIA 160053Z 00000KT 10SM FEW025 BKN250 27/24 A2993 RMK AO2 SLP136 T02720244
Dest. METAR: KATL 160117Z 15003KT 10SM FEW080 SCT110 BKN150 BKN200 23/21 A2990 RMK AO2 RAE08 TSE17 LTG DSNT N NE-SE TS MOVD SE CB DSNT N NE-SE P0000 T02330211
Freight Data
(for Aug 16, 2022)
Load Factor:
38%
Manifested Cargo: 21,968lbs
Financial History
Total Freight: 182,567lbs
Average Load: 0lbs/flt
Fuel Used: 60,008lbs
Avg. Fuel Used: 0lbs/flt
Fuel Expense: $31,183
Avg. Fuel Expense: $0
Avg. Fuel Cost: $0/lbs
Total Gross Income: $423,208
Pilot Pay: $676
Total Expenses: $82,218
Total Revenue: $308,554
Average Revenue: $0

Capitol Logistics 424




KMIA
Miami International Airport
Miami, Florida
KATL
Hartsfield - Jackson Atlanta International Airport
Atlanta, Georgia

Activity Log

Date Flight Route Aircraft Duration
07/03/2022 CPX450 VACAY1 STYMY Q77 SHRKS LAIRI LARZZ JJEDI2 B763 1h 34m
04/17/2022 CPX450 VACAY1 STYMY Q77 SHRKS LAIRI LARZZ JJEDI2 B752 1h 48m
02/15/2022 CPX450 VACAY1 STYMY Q77 SHRKS LAIRI LARZZ JJEDI2 B752 1h 37m
01/15/2022 CPX450 VACAY1 STYMY Q77 SHRKS LAIRI LARZZ JJEDI2 B752 1h 57m